sensor_id;sensor_type;location;lat;lon;timestamp;pressure;altitude;pressure_sealevel;temperature
27715;BMP280;16051;53.024;8.630;2023-03-20T00:00:02;101697.63;;;11.03
27715;BMP280;16051;53.024;8.630;2023-03-20T00:04:09;101704.31;;;10.93
27715;BMP280;16051;53.024;8.630;2023-03-20T00:08:12;101713.97;;;10.88
27715;BMP280;16051;53.024;8.630;2023-03-20T00:12:22;101702.66;;;10.95
27715;BMP280;16051;53.024;8.630;2023-03-20T00:16:37;101709.22;;;10.89
27715;BMP280;16051;53.024;8.630;2023-03-20T00:20:40;101705.22;;;10.90
27715;BMP280;16051;53.024;8.630;2023-03-20T00:24:51;101709.09;;;10.92
27715;BMP280;16051;53.024;8.630;2023-03-20T00:28:54;101698.28;;;10.85
27715;BMP280;16051;53.024;8.630;2023-03-20T00:32:58;101698.41;;;10.81
27715;BMP280;16051;53.024;8.630;2023-03-20T00:37:00;101703.47;;;10.83
27715;BMP280;16051;53.024;8.630;2023-03-20T00:41:19;101709.25;;;10.76
27715;BMP280;16051;53.024;8.630;2023-03-20T00:45:22;101711.84;;;10.70
27715;BMP280;16051;53.024;8.630;2023-03-20T00:49:29;101715.44;;;10.80
27715;BMP280;16051;53.024;8.630;2023-03-20T00:53:47;101706.09;;;10.65
27715;BMP280;16051;53.024;8.630;2023-03-20T00:57:53;101707.97;;;10.68
27715;BMP280;16051;53.024;8.630;2023-03-20T01:01:56;101699.22;;;10.69
27715;BMP280;16051;53.024;8.630;2023-03-20T01:05:59;101703.41;;;10.74
27715;BMP280;16051;53.024;8.630;2023-03-20T01:10:02;101713.94;;;10.66
27715;BMP280;16051;53.024;8.630;2023-03-20T01:14:05;101725.56;;;10.61
27715;BMP280;16051;53.024;8.630;2023-03-20T01:18:15;101725.63;;;10.49
27715;BMP280;16051;53.024;8.630;2023-03-20T01:22:23;101736.19;;;10.50
27715;BMP280;16051;53.024;8.630;2023-03-20T01:26:33;101738.22;;;10.37
27715;BMP280;16051;53.024;8.630;2023-03-20T01:30:36;101745.75;;;10.36
27715;BMP280;16051;53.024;8.630;2023-03-20T01:34:38;101768.06;;;10.29
27715;BMP280;16051;53.024;8.630;2023-03-20T01:38:42;101762.09;;;10.31
27715;BMP280;16051;53.024;8.630;2023-03-20T01:42:45;101752.03;;;10.24
27715;BMP280;16051;53.024;8.630;2023-03-20T01:46:48;101748.84;;;10.26
27715;BMP280;16051;53.024;8.630;2023-03-20T01:50:50;101746.63;;;10.08
27715;BMP280;16051;53.024;8.630;2023-03-20T01:54:54;101740.22;;;9.99
27715;BMP280;16051;53.024;8.630;2023-03-20T01:59:02;101741.44;;;10.10
27715;BMP280;16051;53.024;8.630;2023-03-20T02:03:07;101752.28;;;10.05
27715;BMP280;16051;53.024;8.630;2023-03-20T02:07:23;101754.69;;;10.03
27715;BMP280;16051;53.024;8.630;2023-03-20T02:11:29;101747.88;;;9.95
27715;BMP280;16051;53.024;8.630;2023-03-20T02:15:33;101739.78;;;9.87
27715;BMP280;16051;53.024;8.630;2023-03-20T02:19:52;101746.19;;;9.84
27715;BMP280;16051;53.024;8.630;2023-03-20T02:24:45;101734.38;;;9.84
27715;BMP280;16051;53.024;8.630;2023-03-20T02:34:37;101737.81;;;9.88
27715;BMP280;16051;53.024;8.630;2023-03-20T02:39:07;101726.88;;;9.84
27715;BMP280;16051;53.024;8.630;2023-03-20T02:43:19;101726.56;;;9.82
27715;BMP280;16051;53.024;8.630;2023-03-20T02:47:30;101728.53;;;9.82
27715;BMP280;16051;53.024;8.630;2023-03-20T02:51:40;101714.53;;;9.89
27715;BMP280;16051;53.024;8.630;2023-03-20T02:55:53;101720.25;;;9.82
27715;BMP280;16051;53.024;8.630;2023-03-20T03:00:06;101701.25;;;9.84
27715;BMP280;16051;53.024;8.630;2023-03-20T03:04:17;101695.00;;;9.83
27715;BMP280;16051;53.024;8.630;2023-03-20T03:08:37;101692.66;;;9.82
27715;BMP280;16051;53.024;8.630;2023-03-20T03:12:45;101682.38;;;9.95
27715;BMP280;16051;53.024;8.630;2023-03-20T03:16:52;101683.72;;;9.91
27715;BMP280;16051;53.024;8.630;2023-03-20T03:20:58;101674.56;;;9.81
27715;BMP280;16051;53.024;8.630;2023-03-20T03:25:01;101678.09;;;9.81
27715;BMP280;16051;53.024;8.630;2023-03-20T03:29:12;101673.66;;;9.84
27715;BMP280;16051;53.024;8.630;2023-03-20T03:33:21;101675.00;;;9.92
27715;BMP280;16051;53.024;8.630;2023-03-20T03:37:39;101671.47;;;9.92
27715;BMP280;16051;53.024;8.630;2023-03-20T03:41:47;101668.94;;;9.84
27715;BMP280;16051;53.024;8.630;2023-03-20T03:45:58;101671.16;;;9.77
27715;BMP280;16051;53.024;8.630;2023-03-20T03:50:05;101667.06;;;9.81
27715;BMP280;16051;53.024;8.630;2023-03-20T03:54:13;101652.84;;;9.70
27715;BMP280;16051;53.024;8.630;2023-03-20T03:58:20;101663.53;;;9.81
27715;BMP280;16051;53.024;8.630;2023-03-20T04:02:26;101665.84;;;9.70
27715;BMP280;16051;53.024;8.630;2023-03-20T04:06:53;101675.47;;;9.65
27715;BMP280;16051;53.024;8.630;2023-03-20T04:10:55;101677.66;;;9.70
27715;BMP280;16051;53.024;8.630;2023-03-20T04:14:57;101662.66;;;9.59
27715;BMP280;16051;53.024;8.630;2023-03-20T04:19:01;101678.66;;;9.64
27715;BMP280;16051;53.024;8.630;2023-03-20T04:23:03;101671.38;;;9.57
27715;BMP280;16051;53.024;8.630;2023-03-20T04:27:06;101664.22;;;9.60
27715;BMP280;16051;53.024;8.630;2023-03-20T04:31:08;101665.22;;;9.53
27715;BMP280;16051;53.024;8.630;2023-03-20T04:35:30;101654.50;;;9.55
27715;BMP280;16051;53.024;8.630;2023-03-20T04:39:32;101649.31;;;9.57
27715;BMP280;16051;53.024;8.630;2023-03-20T04:43:35;101648.44;;;9.60
27715;BMP280;16051;53.024;8.630;2023-03-20T04:47:37;101652.28;;;9.63
27715;BMP280;16051;53.024;8.630;2023-03-20T04:51:41;101640.59;;;9.59
27715;BMP280;16051;53.024;8.630;2023-03-20T04:55:44;101647.78;;;9.56
27715;BMP280;16051;53.024;8.630;2023-03-20T04:59:47;101659.69;;;9.53
27715;BMP280;16051;53.024;8.630;2023-03-20T05:03:49;101665.09;;;9.57
27715;BMP280;16051;53.024;8.630;2023-03-20T05:07:53;101654.72;;;9.48
27715;BMP280;16051;53.024;8.630;2023-03-20T05:11:55;101646.66;;;9.41
27715;BMP280;16051;53.024;8.630;2023-03-20T05:15:58;101664.09;;;9.63
27715;BMP280;16051;53.024;8.630;2023-03-20T05:20:01;101669.06;;;9.56
27715;BMP280;16051;53.024;8.630;2023-03-20T05:24:05;101668.38;;;9.52
27715;BMP280;16051;53.024;8.630;2023-03-20T05:28:07;101662.66;;;9.59
27715;BMP280;16051;53.024;8.630;2023-03-20T05:32:10;101672.59;;;9.56
27715;BMP280;16051;53.024;8.630;2023-03-20T05:36:12;101674.78;;;9.49
27715;BMP280;16051;53.024;8.630;2023-03-20T05:40:16;101674.91;;;9.45
27715;BMP280;16051;53.024;8.630;2023-03-20T05:44:19;101685.38;;;9.37
27715;BMP280;16051;53.024;8.630;2023-03-20T05:48:21;101676.22;;;9.40
27715;BMP280;16051;53.024;8.630;2023-03-20T05:52:24;101686.59;;;9.49
27715;BMP280;16051;53.024;8.630;2023-03-20T05:56:28;101684.38;;;9.44
27715;BMP280;16051;53.024;8.630;2023-03-20T06:00:33;101688.03;;;9.41
27715;BMP280;16051;53.024;8.630;2023-03-20T06:04:35;101688.59;;;9.36
27715;BMP280;16051;53.024;8.630;2023-03-20T06:08:37;101698.84;;;9.35
27715;BMP280;16051;53.024;8.630;2023-03-20T06:12:41;101691.88;;;9.31
27715;BMP280;16051;53.024;8.630;2023-03-20T06:16:43;101699.94;;;9.25
27715;BMP280;16051;53.024;8.630;2023-03-20T06:20:45;101698.06;;;9.22
27715;BMP280;16051;53.024;8.630;2023-03-20T06:24:47;101704.88;;;9.30
27715;BMP280;16051;53.024;8.630;2023-03-20T06:28:51;101706.97;;;9.26
27715;BMP280;16051;53.024;8.630;2023-03-20T06:32:53;101698.63;;;9.43
27715;BMP280;16051;53.024;8.630;2023-03-20T06:36:55;101719.38;;;9.47
27715;BMP280;16051;53.024;8.630;2023-03-20T06:40:57;101706.66;;;9.37
27715;BMP280;16051;53.024;8.630;2023-03-20T06:45:00;101707.56;;;9.47
27715;BMP280;16051;53.024;8.630;2023-03-20T06:49:03;101711.44;;;9.36
27715;BMP280;16051;53.024;8.630;2023-03-20T06:53:05;101719.69;;;9.49
27715;BMP280;16051;53.024;8.630;2023-03-20T06:57:07;101733.38;;;9.40
27715;BMP280;16051;53.024;8.630;2023-03-20T07:01:13;101719.59;;;9.40
27715;BMP280;16051;53.024;8.630;2023-03-20T07:05:16;101720.44;;;9.37
27715;BMP280;16051;53.024;8.630;2023-03-20T07:09:19;101714.19;;;9.36
27715;BMP280;16051;53.024;8.630;2023-03-20T07:13:21;101718.59;;;9.47
27715;BMP280;16051;53.024;8.630;2023-03-20T07:17:28;101711.88;;;9.48
27715;BMP280;16051;53.024;8.630;2023-03-20T07:21:31;101721.25;;;9.50
27715;BMP280;16051;53.024;8.630;2023-03-20T07:25:33;101725.66;;;9.60
27715;BMP280;16051;53.024;8.630;2023-03-20T07:29:35;101735.16;;;9.47
27715;BMP280;16051;53.024;8.630;2023-03-20T07:33:39;101732.38;;;9.47
27715;BMP280;16051;53.024;8.630;2023-03-20T07:37:41;101743.22;;;9.54
27715;BMP280;16051;53.024;8.630;2023-03-20T07:41:43;101740.91;;;9.65
27715;BMP280;16051;53.024;8.630;2023-03-20T07:45:46;101736.84;;;9.69
27715;BMP280;16051;53.024;8.630;2023-03-20T07:49:49;101732.16;;;9.66
27715;BMP280;16051;53.024;8.630;2023-03-20T07:53:52;101740.03;;;9.68
27715;BMP280;16051;53.024;8.630;2023-03-20T07:57:54;101746.22;;;9.72
27715;BMP280;16051;53.024;8.630;2023-03-20T08:01:56;101745.97;;;9.66
27715;BMP280;16051;53.024;8.630;2023-03-20T08:06:00;101745.63;;;9.77
27715;BMP280;16051;53.024;8.630;2023-03-20T08:10:06;101741.56;;;9.81
27715;BMP280;16051;53.024;8.630;2023-03-20T08:14:08;101741.44;;;9.85
27715;BMP280;16051;53.024;8.630;2023-03-20T08:18:10;101737.13;;;9.84
27715;BMP280;16051;53.024;8.630;2023-03-20T08:22:14;101746.97;;;9.85
27715;BMP280;16051;53.024;8.630;2023-03-20T08:26:16;101759.44;;;9.89
27715;BMP280;16051;53.024;8.630;2023-03-20T08:30:18;101762.75;;;9.97
27715;BMP280;16051;53.024;8.630;2023-03-20T08:34:20;101762.53;;;10.04
27715;BMP280;16051;53.024;8.630;2023-03-20T08:38:42;101756.69;;;10.02
27715;BMP280;16051;53.024;8.630;2023-03-20T08:42:44;101751.81;;;10.06
27715;BMP280;16051;53.024;8.630;2023-03-20T08:46:47;101764.53;;;10.29
27715;BMP280;16051;53.024;8.630;2023-03-20T08:50:49;101763.97;;;10.34
27715;BMP280;16051;53.024;8.630;2023-03-20T08:54:52;101773.03;;;10.34
27715;BMP280;16051;53.024;8.630;2023-03-20T08:58:54;101760.31;;;10.37
27715;BMP280;16051;53.024;8.630;2023-03-20T09:03:03;101763.94;;;10.47
27715;BMP280;16051;53.024;8.630;2023-03-20T09:07:06;101752.78;;;10.50
27715;BMP280;16051;53.024;8.630;2023-03-20T09:11:09;101749.22;;;10.50
27715;BMP280;16051;53.024;8.630;2023-03-20T09:15:12;101752.09;;;10.59
27715;BMP280;16051;53.024;8.630;2023-03-20T09:19:14;101752.16;;;10.68
27715;BMP280;16051;53.024;8.630;2023-03-20T09:23:17;101754.63;;;10.66
27715;BMP280;16051;53.024;8.630;2023-03-20T09:27:21;101753.91;;;10.74
27715;BMP280;16051;53.024;8.630;2023-03-20T09:31:23;101755.34;;;10.79
27715;BMP280;16051;53.024;8.630;2023-03-20T09:35:25;101756.88;;;10.80
27715;BMP280;16051;53.024;8.630;2023-03-20T09:39:27;101760.09;;;10.78
27715;BMP280;16051;53.024;8.630;2023-03-20T09:43:46;101759.13;;;10.72
27715;BMP280;16051;53.024;8.630;2023-03-20T09:48:04;101760.47;;;10.68
27715;BMP280;16051;53.024;8.630;2023-03-20T09:52:20;101756.53;;;10.78
27715;BMP280;16051;53.024;8.630;2023-03-20T09:56:26;101766.84;;;10.77
27715;BMP280;16051;53.024;8.630;2023-03-20T10:00:33;101763.88;;;10.72
27715;BMP280;16051;53.024;8.630;2023-03-20T10:04:37;101753.72;;;10.69
27715;BMP280;16051;53.024;8.630;2023-03-20T10:08:39;101754.69;;;10.75
27715;BMP280;16051;53.024;8.630;2023-03-20T10:13:01;101750.53;;;10.70
27715;BMP280;16051;53.024;8.630;2023-03-20T10:17:30;101753.78;;;10.78
27715;BMP280;16051;53.024;8.630;2023-03-20T10:21:45;101741.50;;;10.79
27715;BMP280;16051;53.024;8.630;2023-03-20T10:25:53;101740.19;;;10.83
27715;BMP280;16051;53.024;8.630;2023-03-20T10:30:18;101734.34;;;11.03
27715;BMP280;16051;53.024;8.630;2023-03-20T10:34:40;101745.16;;;11.10
27715;BMP280;16051;53.024;8.630;2023-03-20T10:38:51;101734.97;;;11.29
27715;BMP280;16051;53.024;8.630;2023-03-20T10:43:00;101725.91;;;11.28
27715;BMP280;16051;53.024;8.630;2023-03-20T10:47:06;101734.06;;;11.32
27715;BMP280;16051;53.024;8.630;2023-03-20T10:51:15;101724.28;;;11.40
27715;BMP280;16051;53.024;8.630;2023-03-20T10:55:23;101730.56;;;11.41
27715;BMP280;16051;53.024;8.630;2023-03-20T10:59:33;101722.63;;;11.73
27715;BMP280;16051;53.024;8.630;2023-03-20T11:03:35;101710.63;;;11.76
27715;BMP280;16051;53.024;8.630;2023-03-20T11:08:13;101712.97;;;11.78
27715;BMP280;16051;53.024;8.630;2023-03-20T11:12:19;101709.19;;;11.94
27715;BMP280;16051;53.024;8.630;2023-03-20T11:16:23;101710.31;;;12.14
27715;BMP280;16051;53.024;8.630;2023-03-20T11:20:57;101700.94;;;12.48
27715;BMP280;16051;53.024;8.630;2023-03-20T11:25:21;101687.88;;;12.40
27715;BMP280;16051;53.024;8.630;2023-03-20T11:29:29;101690.16;;;12.32
27715;BMP280;16051;53.024;8.630;2023-03-20T11:33:39;101680.94;;;12.35
27715;BMP280;16051;53.024;8.630;2023-03-20T11:38:08;101687.53;;;12.38
27715;BMP280;16051;53.024;8.630;2023-03-20T11:42:25;101675.25;;;12.29
27715;BMP280;16051;53.024;8.630;2023-03-20T11:46:36;101677.53;;;12.22
27715;BMP280;16051;53.024;8.630;2023-03-20T11:50:45;101684.91;;;12.16
27715;BMP280;16051;53.024;8.630;2023-03-20T11:54:57;101676.75;;;12.12
27715;BMP280;16051;53.024;8.630;2023-03-20T11:59:12;101688.00;;;12.18
27715;BMP280;16051;53.024;8.630;2023-03-20T12:03:44;101682.31;;;12.21
27715;BMP280;16051;53.024;8.630;2023-03-20T12:07:53;101678.78;;;12.39
27715;BMP280;16051;53.024;8.630;2023-03-20T12:12:00;101684.31;;;12.48
27715;BMP280;16051;53.024;8.630;2023-03-20T12:16:11;101671.09;;;12.52
27715;BMP280;16051;53.024;8.630;2023-03-20T12:20:30;101676.00;;;12.48
27715;BMP280;16051;53.024;8.630;2023-03-20T12:24:38;101670.19;;;12.37
27715;BMP280;16051;53.024;8.630;2023-03-20T12:28:53;101677.69;;;12.27
27715;BMP280;16051;53.024;8.630;2023-03-20T12:33:13;101674.16;;;12.18
27715;BMP280;16051;53.024;8.630;2023-03-20T12:37:35;101679.84;;;12.23
27715;BMP280;16051;53.024;8.630;2023-03-20T12:41:51;101666.00;;;12.32
27715;BMP280;16051;53.024;8.630;2023-03-20T12:46:25;101663.69;;;12.31
27715;BMP280;16051;53.024;8.630;2023-03-20T12:50:35;101662.28;;;12.26
27715;BMP280;16051;53.024;8.630;2023-03-20T12:55:05;101662.78;;;12.25
27715;BMP280;16051;53.024;8.630;2023-03-20T12:59:21;101656.59;;;12.21
27715;BMP280;16051;53.024;8.630;2023-03-20T13:03:41;101642.31;;;12.31
27715;BMP280;16051;53.024;8.630;2023-03-20T13:08:22;101654.16;;;12.32
27715;BMP280;16051;53.024;8.630;2023-03-20T13:12:41;101645.09;;;12.22
27715;BMP280;16051;53.024;8.630;2023-03-20T13:17:05;101637.38;;;12.17
27715;BMP280;16051;53.024;8.630;2023-03-20T13:21:20;101641.38;;;12.16
27715;BMP280;16051;53.024;8.630;2023-03-20T13:25:44;101642.13;;;12.17
27715;BMP280;16051;53.024;8.630;2023-03-20T13:29:56;101639.69;;;12.28
27715;BMP280;16051;53.024;8.630;2023-03-20T13:34:15;101634.44;;;12.30
27715;BMP280;16051;53.024;8.630;2023-03-20T13:38:22;101635.53;;;12.23
27715;BMP280;16051;53.024;8.630;2023-03-20T13:42:33;101627.22;;;12.23
27715;BMP280;16051;53.024;8.630;2023-03-20T13:46:52;101634.31;;;12.24
27715;BMP280;16051;53.024;8.630;2023-03-20T13:51:06;101631.50;;;12.06
27715;BMP280;16051;53.024;8.630;2023-03-20T13:55:24;101617.53;;;12.01
27715;BMP280;16051;53.024;8.630;2023-03-20T13:59:59;101615.97;;;12.00
27715;BMP280;16051;53.024;8.630;2023-03-20T14:04:12;101624.25;;;11.91
27715;BMP280;16051;53.024;8.630;2023-03-20T14:08:37;101621.81;;;11.93
27715;BMP280;16051;53.024;8.630;2023-03-20T14:12:39;101623.81;;;11.92
27715;BMP280;16051;53.024;8.630;2023-03-20T14:16:43;101626.53;;;11.74
27715;BMP280;16051;53.024;8.630;2023-03-20T14:20:58;101631.06;;;11.59
27715;BMP280;16051;53.024;8.630;2023-03-20T14:25:06;101640.88;;;11.51
27715;BMP280;16051;53.024;8.630;2023-03-20T14:29:31;101631.13;;;11.37
27715;BMP280;16051;53.024;8.630;2023-03-20T14:33:43;101634.66;;;11.28
27715;BMP280;16051;53.024;8.630;2023-03-20T14:38:08;101633.09;;;11.27
27715;BMP280;16051;53.024;8.630;2023-03-20T14:42:29;101627.50;;;11.18
27715;BMP280;16051;53.024;8.630;2023-03-20T14:46:47;101619.06;;;11.13
27715;BMP280;16051;53.024;8.630;2023-03-20T14:51:20;101628.25;;;11.10
27715;BMP280;16051;53.024;8.630;2023-03-20T14:55:46;101632.44;;;10.93
27715;BMP280;16051;53.024;8.630;2023-03-20T14:59:49;101615.81;;;10.83
27715;BMP280;16051;53.024;8.630;2023-03-20T15:03:56;101620.63;;;10.92
27715;BMP280;16051;53.024;8.630;2023-03-20T15:08:07;101612.50;;;10.98
27715;BMP280;16051;53.024;8.630;2023-03-20T15:12:15;101613.47;;;11.04
27715;BMP280;16051;53.024;8.630;2023-03-20T15:16:27;101613.28;;;10.98
27715;BMP280;16051;53.024;8.630;2023-03-20T15:20:43;101609.25;;;10.90
27715;BMP280;16051;53.024;8.630;2023-03-20T15:24:55;101604.19;;;10.89
27715;BMP280;16051;53.024;8.630;2023-03-20T15:29:01;101616.75;;;10.90
27715;BMP280;16051;53.024;8.630;2023-03-20T15:33:05;101607.25;;;10.91
27715;BMP280;16051;53.024;8.630;2023-03-20T15:37:27;101610.28;;;10.83
27715;BMP280;16051;53.024;8.630;2023-03-20T15:41:33;101608.69;;;10.95
27715;BMP280;16051;53.024;8.630;2023-03-20T15:45:35;101610.41;;;10.80
27715;BMP280;16051;53.024;8.630;2023-03-20T15:49:40;101605.97;;;10.82
27715;BMP280;16051;53.024;8.630;2023-03-20T15:53:46;101609.25;;;10.90
27715;BMP280;16051;53.024;8.630;2023-03-20T15:58:26;101600.66;;;10.88
27715;BMP280;16051;53.024;8.630;2023-03-20T16:02:30;101598.16;;;10.81
27715;BMP280;16051;53.024;8.630;2023-03-20T16:06:47;101599.66;;;10.82
27715;BMP280;16051;53.024;8.630;2023-03-20T16:10:55;101600.13;;;10.80
27715;BMP280;16051;53.024;8.630;2023-03-20T16:14:59;101600.59;;;10.79
27715;BMP280;16051;53.024;8.630;2023-03-20T16:19:05;101601.09;;;10.65
27715;BMP280;16051;53.024;8.630;2023-03-20T16:23:09;101602.00;;;10.62
27715;BMP280;16051;53.024;8.630;2023-03-20T16:27:19;101607.84;;;10.64
27715;BMP280;16051;53.024;8.630;2023-03-20T16:31:47;101605.81;;;10.55
27715;BMP280;16051;53.024;8.630;2023-03-20T16:35:50;101601.88;;;10.65
27715;BMP280;16051;53.024;8.630;2023-03-20T16:40:13;101606.72;;;10.52
27715;BMP280;16051;53.024;8.630;2023-03-20T16:44:21;101604.69;;;10.53
27715;BMP280;16051;53.024;8.630;2023-03-20T16:48:34;101607.34;;;10.56
27715;BMP280;16051;53.024;8.630;2023-03-20T16:52:39;101613.63;;;10.57
27715;BMP280;16051;53.024;8.630;2023-03-20T16:56:52;101602.31;;;10.42
27715;BMP280;16051;53.024;8.630;2023-03-20T17:01:00;101606.19;;;10.23
27715;BMP280;16051;53.024;8.630;2023-03-20T17:05:12;101619.69;;;9.96
27715;BMP280;16051;53.024;8.630;2023-03-20T17:09:19;101620.38;;;9.87
27715;BMP280;16051;53.024;8.630;2023-03-20T17:13:23;101614.22;;;9.83
27715;BMP280;16051;53.024;8.630;2023-03-20T17:17:26;101619.84;;;9.79
27715;BMP280;16051;53.024;8.630;2023-03-20T17:21:29;101622.59;;;9.79
27715;BMP280;16051;53.024;8.630;2023-03-20T17:25:32;101626.47;;;9.69
27715;BMP280;16051;53.024;8.630;2023-03-20T17:29:35;101633.41;;;9.74
27715;BMP280;16051;53.024;8.630;2023-03-20T17:33:37;101632.22;;;9.50
27715;BMP280;16051;53.024;8.630;2023-03-20T17:37:41;101630.25;;;9.50
27715;BMP280;16051;53.024;8.630;2023-03-20T17:41:43;101631.13;;;9.47
27715;BMP280;16051;53.024;8.630;2023-03-20T17:45:46;101625.72;;;9.44
27715;BMP280;16051;53.024;8.630;2023-03-20T17:49:49;101623.94;;;9.37
27715;BMP280;16051;53.024;8.630;2023-03-20T17:53:55;101607.63;;;9.30
27715;BMP280;16051;53.024;8.630;2023-03-20T17:57:57;101613.34;;;9.23
27715;BMP280;16051;53.024;8.630;2023-03-20T18:02:00;101616.66;;;9.18
27715;BMP280;16051;53.024;8.630;2023-03-20T18:06:03;101619.75;;;9.20
27715;BMP280;16051;53.024;8.630;2023-03-20T18:10:25;101620.63;;;9.17
27715;BMP280;16051;53.024;8.630;2023-03-20T18:14:28;101616.00;;;9.14
27715;BMP280;16051;53.024;8.630;2023-03-20T18:18:31;101628.00;;;9.07
27715;BMP280;16051;53.024;8.630;2023-03-20T18:22:42;101630.31;;;8.96
27715;BMP280;16051;53.024;8.630;2023-03-20T18:26:47;101628.66;;;8.99
27715;BMP280;16051;53.024;8.630;2023-03-20T18:31:05;101642.97;;;8.94
27715;BMP280;16051;53.024;8.630;2023-03-20T18:35:08;101634.59;;;8.97
27715;BMP280;16051;53.024;8.630;2023-03-20T18:39:16;101636.69;;;8.93
27715;BMP280;16051;53.024;8.630;2023-03-20T18:43:20;101639.88;;;8.92
27715;BMP280;16051;53.024;8.630;2023-03-20T18:47:22;101634.94;;;8.99
27715;BMP280;16051;53.024;8.630;2023-03-20T18:51:25;101629.53;;;8.96
27715;BMP280;16051;53.024;8.630;2023-03-20T18:55:28;101632.59;;;8.85
27715;BMP280;16051;53.024;8.630;2023-03-20T18:59:36;101631.81;;;8.84
27715;BMP280;16051;53.024;8.630;2023-03-20T19:03:39;101630.72;;;8.82
27715;BMP280;16051;53.024;8.630;2023-03-20T19:07:57;101626.00;;;8.95
27715;BMP280;16051;53.024;8.630;2023-03-20T19:11:59;101620.69;;;8.88
27715;BMP280;16051;53.024;8.630;2023-03-20T19:16:16;101627.88;;;8.85
27715;BMP280;16051;53.024;8.630;2023-03-20T19:20:39;101622.09;;;8.80
27715;BMP280;16051;53.024;8.630;2023-03-20T19:24:42;101617.81;;;8.79
27715;BMP280;16051;53.024;8.630;2023-03-20T19:28:45;101620.38;;;8.86
27715;BMP280;16051;53.024;8.630;2023-03-20T19:32:49;101619.25;;;8.83
27715;BMP280;16051;53.024;8.630;2023-03-20T19:36:51;101618.16;;;8.94
27715;BMP280;16051;53.024;8.630;2023-03-20T19:40:54;101613.31;;;8.85
27715;BMP280;16051;53.024;8.630;2023-03-20T19:44:56;101612.22;;;8.82
27715;BMP280;16051;53.024;8.630;2023-03-20T19:48:59;101613.84;;;8.80
27715;BMP280;16051;53.024;8.630;2023-03-20T19:53:05;101609.47;;;8.82
27715;BMP280;16051;53.024;8.630;2023-03-20T19:57:08;101602.28;;;8.85
27715;BMP280;16051;53.024;8.630;2023-03-20T20:01:15;101610.09;;;8.74
27715;BMP280;16051;53.024;8.630;2023-03-20T20:05:23;101609.22;;;8.77
27715;BMP280;16051;53.024;8.630;2023-03-20T20:09:28;101606.88;;;8.75
27715;BMP280;16051;53.024;8.630;2023-03-20T20:13:32;101602.16;;;8.76
27715;BMP280;16051;53.024;8.630;2023-03-20T20:17:35;101595.00;;;8.78
27715;BMP280;16051;53.024;8.630;2023-03-20T20:21:38;101600.06;;;8.67
27715;BMP280;16051;53.024;8.630;2023-03-20T20:25:41;101590.56;;;8.68
27715;BMP280;16051;53.024;8.630;2023-03-20T20:29:51;101593.88;;;8.76
27715;BMP280;16051;53.024;8.630;2023-03-20T20:33:53;101594.00;;;8.72
27715;BMP280;16051;53.024;8.630;2023-03-20T20:54:39;101590.13;;;8.70
27715;BMP280;16051;53.024;8.630;2023-03-20T20:58:42;101586.72;;;8.66
27715;BMP280;16051;53.024;8.630;2023-03-20T21:02:44;101586.13;;;8.58
27715;BMP280;16051;53.024;8.630;2023-03-20T21:06:46;101585.72;;;8.60
27715;BMP280;16051;53.024;8.630;2023-03-20T21:10:50;101591.53;;;8.62
27715;BMP280;16051;53.024;8.630;2023-03-20T21:15:05;101587.81;;;8.68
27715;BMP280;16051;53.024;8.630;2023-03-20T21:19:07;101587.25;;;8.61
27715;BMP280;16051;53.024;8.630;2023-03-20T21:23:09;101589.47;;;8.66
27715;BMP280;16051;53.024;8.630;2023-03-20T21:27:14;101584.25;;;8.55
27715;BMP280;16051;53.024;8.630;2023-03-20T21:31:24;101578.81;;;8.68
27715;BMP280;16051;53.024;8.630;2023-03-20T21:35:26;101579.28;;;8.50
27715;BMP280;16051;53.024;8.630;2023-03-20T21:39:29;101581.19;;;8.66
27715;BMP280;16051;53.024;8.630;2023-03-20T21:43:32;101579.75;;;8.61
27715;BMP280;16051;53.024;8.630;2023-03-20T21:47:35;101583.72;;;8.60
27715;BMP280;16051;53.024;8.630;2023-03-20T21:51:37;101579.44;;;8.59
27715;BMP280;16051;53.024;8.630;2023-03-20T21:55:39;101574.59;;;8.63
27715;BMP280;16051;53.024;8.630;2023-03-20T21:59:42;101576.16;;;8.64
27715;BMP280;16051;53.024;8.630;2023-03-20T22:03:44;101575.78;;;8.62
27715;BMP280;16051;53.024;8.630;2023-03-20T22:07:46;101579.00;;;8.61
27715;BMP280;16051;53.024;8.630;2023-03-20T22:11:50;101571.50;;;8.61
27715;BMP280;16051;53.024;8.630;2023-03-20T22:15:54;101576.56;;;8.63
27715;BMP280;16051;53.024;8.630;2023-03-20T22:19:56;101581.97;;;8.66
27715;BMP280;16051;53.024;8.630;2023-03-20T22:23:58;101574.50;;;8.67
27715;BMP280;16051;53.024;8.630;2023-03-20T22:28:01;101571.38;;;8.65
27715;BMP280;16051;53.024;8.630;2023-03-20T22:32:05;101583.31;;;8.74
27715;BMP280;16051;53.024;8.630;2023-03-20T22:36:10;101587.59;;;8.75
27715;BMP280;16051;53.024;8.630;2023-03-20T22:40:13;101580.13;;;8.76
27715;BMP280;16051;53.024;8.630;2023-03-20T22:44:16;101577.13;;;8.70
27715;BMP280;16051;53.024;8.630;2023-03-20T22:48:21;101576.94;;;8.77
27715;BMP280;16051;53.024;8.630;2023-03-20T22:52:23;101572.53;;;8.80
27715;BMP280;16051;53.024;8.630;2023-03-20T22:56:26;101577.72;;;8.78
27715;BMP280;16051;53.024;8.630;2023-03-20T23:00:29;101572.16;;;8.65
27715;BMP280;16051;53.024;8.630;2023-03-20T23:04:32;101572.50;;;8.67
27715;BMP280;16051;53.024;8.630;2023-03-20T23:08:34;101566.03;;;8.74
27715;BMP280;16051;53.024;8.630;2023-03-20T23:12:37;101575.38;;;8.76
27715;BMP280;16051;53.024;8.630;2023-03-20T23:16:39;101576.25;;;8.73
27715;BMP280;16051;53.024;8.630;2023-03-20T23:20:43;101571.00;;;8.79
27715;BMP280;16051;53.024;8.630;2023-03-20T23:24:45;101569.34;;;8.81
27715;BMP280;16051;53.024;8.630;2023-03-20T23:28:49;101568.13;;;8.82
27715;BMP280;16051;53.024;8.630;2023-03-20T23:32:52;101573.41;;;8.77
27715;BMP280;16051;53.024;8.630;2023-03-20T23:36:56;101574.97;;;8.78
27715;BMP280;16051;53.024;8.630;2023-03-20T23:40:58;101568.31;;;8.75
27715;BMP280;16051;53.024;8.630;2023-03-20T23:45:05;101564.38;;;8.76
27715;BMP280;16051;53.024;8.630;2023-03-20T23:49:07;101566.03;;;8.74
27715;BMP280;16051;53.024;8.630;2023-03-20T23:53:11;101561.06;;;8.81
27715;BMP280;16051;53.024;8.630;2023-03-20T23:57:13;101563.38;;;8.83
